createdAt,value
2023-01-29T00:01:06.597Z,13.05
2023-01-29T00:04:09.342Z,11.82
2023-01-29T00:07:12.311Z,12.43
2023-01-29T00:10:15.555Z,15.40
2023-01-29T00:13:19.082Z,13.73
2023-01-29T00:16:21.885Z,11.30
2023-01-29T00:19:24.669Z,12.40
2023-01-29T00:22:27.541Z,17.00
2023-01-29T00:25:30.812Z,13.00
2023-01-29T00:28:33.831Z,13.80
2023-01-29T00:31:37.108Z,12.88
2023-01-29T00:34:39.926Z,13.05
2023-01-29T00:37:42.737Z,11.80
2023-01-29T00:41:04.511Z,13.07
2023-01-29T00:44:26.646Z,12.23
2023-01-29T00:47:35.538Z,14.20
2023-01-29T00:50:38.455Z,12.55
2023-01-29T00:53:41.968Z,14.35
2023-01-29T00:56:44.711Z,13.45
2023-01-29T00:59:47.659Z,11.57
2023-01-29T01:03:05.713Z,12.52
2023-01-29T01:06:11.018Z,13.77
2023-01-29T01:09:32.533Z,12.15
2023-01-29T01:12:37.272Z,14.52
2023-01-29T01:15:40.818Z,9.83
2023-01-29T01:18:43.556Z,12.52
2023-01-29T01:21:48.432Z,13.77
2023-01-29T01:24:51.200Z,16.25
2023-01-29T01:31:15.728Z,12.73
2023-01-29T01:34:18.568Z,12.95
2023-01-29T01:37:21.583Z,13.05
2023-01-29T01:40:25.903Z,13.07
2023-01-29T01:43:28.733Z,13.07
2023-01-29T01:46:34.175Z,14.77
2023-01-29T01:49:37.167Z,10.25
2023-01-29T01:52:45.317Z,11.73
2023-01-29T01:55:56.002Z,9.93
2023-01-29T01:58:59.542Z,12.98
2023-01-29T02:02:21.097Z,14.23
2023-01-29T02:05:42.701Z,13.30
2023-01-29T02:09:13.772Z,11.18
2023-01-29T02:12:17.346Z,12.95
2023-01-29T02:15:20.111Z,13.88
2023-01-29T02:18:23.160Z,13.20
2023-01-29T02:21:46.135Z,12.68
2023-01-29T02:25:26.984Z,11.68
2023-01-29T02:28:54.568Z,14.40
2023-01-29T02:32:20.572Z,14.15
2023-01-29T02:35:32.299Z,14.70
2023-01-29T02:38:50.408Z,13.60
2023-01-29T02:42:15.463Z,13.85
2023-01-29T02:45:42.349Z,12.00
2023-01-29T02:49:24.545Z,11.02
2023-01-29T02:52:31.712Z,11.90
2023-01-29T02:55:37.445Z,11.55
2023-01-29T02:58:45.696Z,12.63
2023-01-29T03:01:54.852Z,12.85
2023-01-29T03:05:06.463Z,13.63
2023-01-29T03:08:15.870Z,11.50
2023-01-29T03:11:21.262Z,12.85
2023-01-29T03:14:56.585Z,12.45
2023-01-29T03:18:08.853Z,12.30
2023-01-29T03:21:38.521Z,13.25
2023-01-29T03:25:05.771Z,11.93
2023-01-29T03:28:31.179Z,11.90
2023-01-29T03:31:53.192Z,15.32
2023-01-29T03:35:04.126Z,14.15
2023-01-29T03:38:10.513Z,13.07
2023-01-29T03:41:50.163Z,10.57
2023-01-29T03:45:14.238Z,10.30
2023-01-29T03:48:45.838Z,10.90
2023-01-29T03:52:12.614Z,14.32
2023-01-29T03:55:21.696Z,13.50
2023-01-29T03:58:35.931Z,11.47
2023-01-29T04:01:47.733Z,10.15
2023-01-29T04:04:53.699Z,11.07
2023-01-29T04:08:13.114Z,10.82
2023-01-29T04:11:21.128Z,11.48
2023-01-29T04:14:24.032Z,11.30
2023-01-29T04:17:36.110Z,10.57
2023-01-29T04:20:47.467Z,10.55
2023-01-29T04:23:50.276Z,10.77
2023-01-29T04:26:58.132Z,11.02
2023-01-29T04:30:25.637Z,11.10
2023-01-29T04:34:10.402Z,12.38
2023-01-29T04:37:19.637Z,11.52
2023-01-29T04:40:48.720Z,11.10
2023-01-29T04:44:13.135Z,12.98
2023-01-29T04:47:28.034Z,11.00
2023-01-29T04:50:42.549Z,11.32
2023-01-29T04:54:04.993Z,11.15
2023-01-29T04:57:29.641Z,11.40
2023-01-29T05:00:39.346Z,10.48
2023-01-29T05:03:46.975Z,11.07
2023-01-29T05:06:51.075Z,10.05
2023-01-29T05:09:54.110Z,12.02
2023-01-29T05:13:03.471Z,9.00
2023-01-29T05:16:17.788Z,10.02
2023-01-29T05:19:20.581Z,9.23
2023-01-29T05:22:24.405Z,9.80
2023-01-29T05:25:30.131Z,9.18
2023-01-29T05:28:32.853Z,10.88
2023-01-29T05:31:35.688Z,10.27
2023-01-29T05:34:38.672Z,10.57
2023-01-29T05:37:41.491Z,11.35
2023-01-29T05:41:04.213Z,9.43
2023-01-29T05:44:06.956Z,11.52
2023-01-29T05:47:09.857Z,10.77
2023-01-29T05:50:14.893Z,8.87
2023-01-29T05:53:17.827Z,10.73
2023-01-29T05:56:20.552Z,11.27
2023-01-29T05:59:23.343Z,11.20
2023-01-29T06:02:26.034Z,10.80
2023-01-29T06:05:28.784Z,11.30
2023-01-29T06:08:31.668Z,10.60
2023-01-29T06:11:34.497Z,10.60
2023-01-29T06:14:37.223Z,10.05
2023-01-29T06:17:39.996Z,10.43
2023-01-29T06:20:43.183Z,10.40
2023-01-29T06:23:45.948Z,10.63
2023-01-29T06:26:48.790Z,11.45
2023-01-29T06:29:51.557Z,10.43
2023-01-29T06:33:01.756Z,10.68
2023-01-29T06:36:05.522Z,11.23
2023-01-29T06:39:08.602Z,9.05
2023-01-29T06:42:12.900Z,11.27
2023-01-29T06:45:15.833Z,10.20
2023-01-29T06:48:19.131Z,12.55
2023-01-29T06:51:23.106Z,10.90
2023-01-29T06:54:25.963Z,10.43
2023-01-29T06:57:31.615Z,10.25
2023-01-29T07:00:35.092Z,9.70
2023-01-29T07:03:38.360Z,11.43
2023-01-29T07:06:41.194Z,9.33
2023-01-29T07:09:44.092Z,9.05
2023-01-29T07:12:46.957Z,12.38
2023-01-29T07:15:49.659Z,10.90
2023-01-29T07:18:52.464Z,10.32
2023-01-29T07:21:55.515Z,7.73
2023-01-29T07:24:58.592Z,9.32
2023-01-29T07:28:02.073Z,10.77
2023-01-29T07:31:06.278Z,9.00
2023-01-29T07:34:09.034Z,9.52
2023-01-29T07:37:11.821Z,9.47
2023-01-29T07:40:15.331Z,8.77
2023-01-29T07:43:19.441Z,8.63
2023-01-29T07:46:22.123Z,8.75
2023-01-29T07:49:24.872Z,10.07
2023-01-29T07:52:30.198Z,10.57
2023-01-29T07:55:34.050Z,9.57
2023-01-29T07:58:36.948Z,11.43
2023-01-29T08:01:39.663Z,9.73
2023-01-29T08:04:42.349Z,8.60
2023-01-29T08:07:51.451Z,7.83
2023-01-29T08:11:02.838Z,8.98
2023-01-29T08:14:05.579Z,7.93
2023-01-29T08:17:08.290Z,8.13
2023-01-29T08:20:19.636Z,9.57
2023-01-29T08:23:22.605Z,8.13
2023-01-29T08:26:27.421Z,6.18
2023-01-29T08:29:30.246Z,8.23
2023-01-29T08:32:33.021Z,8.68
2023-01-29T08:35:36.248Z,10.65
2023-01-29T08:38:39.057Z,8.73
2023-01-29T08:41:41.756Z,7.93
2023-01-29T08:44:44.460Z,8.32
2023-01-29T08:47:49.016Z,8.07
2023-01-29T08:50:52.017Z,9.25
2023-01-29T08:53:54.790Z,7.83
2023-01-29T08:56:57.557Z,7.28
2023-01-29T09:00:00.584Z,7.90
2023-01-29T09:03:04.009Z,8.38
2023-01-29T09:06:08.843Z,7.18
2023-01-29T09:09:12.058Z,7.83
2023-01-29T09:12:14.805Z,7.75
2023-01-29T09:15:17.977Z,8.38
2023-01-29T09:18:22.100Z,7.57
2023-01-29T09:21:24.854Z,7.85
2023-01-29T09:24:27.788Z,7.50
2023-01-29T09:27:30.968Z,8.13
2023-01-29T09:30:34.833Z,7.50
2023-01-29T09:33:37.979Z,6.88
2023-01-29T09:36:40.759Z,8.15
2023-01-29T09:39:44.332Z,8.07
2023-01-29T09:42:54.533Z,9.55
2023-01-29T09:46:05.679Z,8.25
2023-01-29T09:49:26.327Z,7.18
2023-01-29T09:52:40.669Z,6.88
2023-01-29T09:55:51.651Z,6.33
2023-01-29T09:59:00.479Z,5.65
2023-01-29T10:02:21.877Z,7.32
2023-01-29T10:06:06.388Z,8.57
2023-01-29T10:09:46.275Z,7.38
2023-01-29T10:13:20.434Z,6.80
2023-01-29T10:16:52.317Z,5.72
2023-01-29T10:20:02.781Z,4.65
2023-01-29T10:23:22.459Z,6.40
2023-01-29T10:26:27.670Z,6.85
2023-01-29T10:29:33.080Z,5.90
2023-01-29T10:32:37.401Z,5.25
2023-01-29T10:35:50.189Z,6.15
2023-01-29T10:38:53.235Z,6.88
2023-01-29T10:42:14.413Z,6.35
2023-01-29T10:45:42.989Z,6.47
2023-01-29T10:48:59.430Z,5.57
2023-01-29T10:52:25.009Z,6.80
2023-01-29T10:56:14.115Z,6.82
2023-01-29T10:59:36.079Z,7.45
2023-01-29T11:02:50.397Z,5.70
2023-01-29T11:06:13.053Z,6.85
2023-01-29T11:09:29.559Z,6.45
2023-01-29T11:12:33.793Z,6.00
2023-01-29T11:15:36.800Z,7.90
2023-01-29T11:18:55.420Z,6.03
2023-01-29T11:22:01.274Z,6.57
2023-01-29T11:25:20.176Z,6.43
2023-01-29T11:28:40.682Z,6.65
2023-01-29T11:31:43.955Z,7.43
2023-01-29T11:35:12.679Z,5.47
2023-01-29T11:38:26.841Z,5.95
2023-01-29T11:41:29.717Z,6.45
2023-01-29T11:44:32.951Z,6.10
2023-01-29T11:47:35.932Z,4.78
2023-01-29T11:50:38.648Z,4.47
2023-01-29T11:53:45.730Z,7.47
2023-01-29T11:56:49.225Z,5.65
2023-01-29T11:59:54.337Z,6.05
2023-01-29T12:03:11.852Z,4.60
2023-01-29T12:06:28.375Z,4.67
2023-01-29T12:09:31.519Z,4.70
2023-01-29T12:12:40.287Z,6.40
2023-01-29T12:15:43.390Z,4.30
2023-01-29T12:19:12.188Z,5.15
2023-01-29T12:22:25.091Z,4.10
2023-01-29T12:25:41.555Z,4.28
2023-01-29T12:29:10.473Z,4.45
2023-01-29T12:32:43.543Z,3.63
2023-01-29T12:35:57.655Z,4.22
2023-01-29T12:39:01.033Z,5.00
2023-01-29T12:42:13.407Z,7.20
2023-01-29T12:45:25.250Z,6.47
2023-01-29T12:48:34.975Z,6.00
2023-01-29T12:51:49.082Z,5.03
2023-01-29T12:55:03.297Z,3.87
2023-01-29T12:58:24.343Z,4.10
2023-01-29T13:01:36.977Z,5.45
2023-01-29T13:04:45.729Z,4.20
2023-01-29T13:07:56.272Z,6.05
2023-01-29T13:11:06.436Z,4.53
2023-01-29T13:14:23.018Z,5.75
2023-01-29T13:17:37.939Z,5.00
2023-01-29T13:20:41.373Z,5.20
2023-01-29T13:23:47.533Z,4.72
2023-01-29T13:26:51.458Z,4.80
2023-01-29T13:29:56.046Z,5.07
2023-01-29T13:33:10.382Z,4.40
2023-01-29T13:36:20.307Z,4.07
2023-01-29T13:39:32.873Z,4.38
2023-01-29T13:42:38.519Z,4.57
2023-01-29T13:45:45.366Z,4.20
2023-01-29T13:48:52.362Z,5.82
2023-01-29T13:51:55.728Z,5.60
2023-01-29T13:55:03.270Z,5.00
2023-01-29T13:58:16.131Z,5.07
2023-01-29T14:01:47.879Z,4.82
2023-01-29T14:04:51.018Z,4.43
2023-01-29T14:07:54.081Z,4.43
2023-01-29T14:11:15.433Z,5.35
2023-01-29T14:14:48.975Z,4.57
2023-01-29T14:18:20.789Z,4.97
2023-01-29T14:21:29.873Z,5.15
2023-01-29T14:24:34.044Z,5.63
2023-01-29T14:27:37.559Z,5.68
2023-01-29T14:30:45.811Z,4.80
2023-01-29T14:33:49.160Z,5.47
2023-01-29T14:36:57.874Z,4.75
2023-01-29T14:40:24.145Z,5.90
2023-01-29T14:43:26.876Z,7.05
2023-01-29T14:46:35.869Z,5.63
2023-01-29T14:50:00.778Z,6.00
2023-01-29T14:53:27.411Z,6.60
2023-01-29T14:56:37.276Z,6.53
2023-01-29T15:00:00.609Z,5.05
2023-01-29T15:03:12.405Z,6.57
2023-01-29T15:06:20.289Z,6.75
2023-01-29T15:10:18.937Z,8.27
2023-01-29T15:13:37.597Z,6.28
2023-01-29T15:17:17.418Z,6.50
2023-01-29T15:20:41.158Z,5.00
2023-01-29T15:23:45.439Z,6.05
2023-01-29T15:26:48.440Z,7.35
2023-01-29T15:29:58.787Z,7.53
2023-01-29T15:33:03.766Z,4.82
2023-01-29T15:36:08.290Z,3.80
2023-01-29T15:39:24.338Z,4.85
2023-01-29T15:42:29.079Z,4.25
2023-01-29T15:45:34.161Z,6.60
2023-01-29T15:48:41.160Z,5.65
2023-01-29T15:51:44.122Z,6.90
2023-01-29T15:54:47.940Z,6.82
2023-01-29T15:57:51.194Z,6.65
2023-01-29T16:00:56.818Z,6.82
2023-01-29T16:04:04.506Z,5.95
2023-01-29T16:07:07.431Z,6.10
2023-01-29T16:10:22.536Z,6.18
2023-01-29T16:13:31.928Z,5.50
2023-01-29T16:16:35.116Z,5.22
2023-01-29T16:19:38.521Z,6.38
2023-01-29T16:22:41.715Z,6.20
2023-01-29T16:25:44.880Z,5.65
2023-01-29T16:28:48.279Z,5.78
2023-01-29T16:32:00.536Z,4.40
2023-01-29T16:35:03.990Z,4.03
2023-01-29T16:38:22.091Z,5.80
2023-01-29T16:41:25.190Z,5.97
2023-01-29T16:44:28.256Z,5.63
2023-01-29T16:47:34.734Z,5.03
2023-01-29T16:50:53.906Z,5.00
2023-01-29T16:53:59.287Z,5.60
2023-01-29T16:57:03.477Z,3.47
2023-01-29T17:00:08.782Z,3.60
2023-01-29T17:03:14.699Z,4.78
2023-01-29T17:06:23.632Z,4.95
2023-01-29T17:09:37.776Z,4.57
2023-01-29T17:12:41.004Z,4.95
2023-01-29T17:15:43.907Z,5.30
2023-01-29T17:18:47.002Z,4.88
2023-01-29T17:21:50.130Z,5.35
2023-01-29T17:24:53.055Z,5.80
2023-01-29T17:27:56.041Z,6.68
2023-01-29T17:31:06.284Z,5.22
2023-01-29T17:34:14.228Z,11.80
2023-01-29T17:37:17.491Z,9.82
2023-01-29T17:40:34.577Z,9.07
2023-01-29T17:43:37.529Z,6.30
2023-01-29T17:46:41.578Z,5.63
2023-01-29T17:49:44.562Z,4.72
2023-01-29T17:52:47.529Z,5.05
2023-01-29T17:55:50.827Z,4.10
2023-01-29T17:58:54.229Z,4.53
2023-01-29T18:01:57.383Z,4.45
2023-01-29T18:05:00.612Z,4.53
2023-01-29T18:08:04.812Z,4.03
2023-01-29T18:11:12.710Z,5.13
2023-01-29T18:14:15.973Z,5.88
2023-01-29T18:17:22.487Z,4.55
2023-01-29T18:20:25.874Z,6.88
2023-01-29T18:23:31.316Z,5.90
2023-01-29T18:26:36.059Z,5.80
2023-01-29T18:29:39.218Z,6.57
2023-01-29T18:32:42.696Z,6.22
2023-01-29T18:35:48.169Z,7.32
2023-01-29T18:38:50.995Z,7.85
2023-01-29T18:41:53.986Z,5.93
2023-01-29T18:44:56.938Z,8.15
2023-01-29T18:48:00.251Z,7.07
2023-01-29T18:51:03.559Z,5.32
2023-01-29T18:54:06.579Z,9.18
2023-01-29T18:57:14.316Z,8.00
2023-01-29T19:00:20.056Z,8.52
2023-01-29T19:03:23.163Z,8.63
2023-01-29T19:06:26.021Z,7.72
2023-01-29T19:09:29.058Z,9.63
2023-01-29T19:12:33.923Z,6.90
2023-01-29T19:15:37.119Z,6.93
2023-01-29T19:18:40.283Z,7.65
2023-01-29T19:21:43.504Z,7.13
2023-01-29T19:24:46.567Z,5.95
2023-01-29T19:27:49.728Z,7.17
2023-01-29T19:30:52.793Z,6.07
2023-01-29T19:33:55.812Z,6.88
2023-01-29T19:36:58.542Z,6.53
2023-01-29T19:40:01.693Z,6.63
2023-01-29T19:43:05.206Z,5.30
2023-01-29T19:46:08.087Z,6.47
2023-01-29T19:49:11.076Z,6.68
2023-01-29T19:52:51.099Z,5.63
2023-01-29T19:56:16.003Z,5.88
2023-01-29T19:59:19.781Z,6.33
2023-01-29T20:02:22.809Z,6.95
2023-01-29T20:05:27.241Z,6.85
2023-01-29T20:08:31.201Z,6.75
2023-01-29T20:11:34.302Z,6.45
2023-01-29T20:14:37.292Z,6.40
2023-01-29T20:17:40.738Z,5.93
2023-01-29T20:20:48.325Z,8.57
2023-01-29T20:23:51.967Z,6.97
2023-01-29T20:26:55.472Z,7.90
2023-01-29T20:29:59.842Z,6.70
2023-01-29T20:33:03.886Z,6.40
2023-01-29T20:36:10.176Z,8.05
2023-01-29T20:39:13.198Z,5.95
2023-01-29T20:42:16.539Z,7.30
2023-01-29T20:45:19.885Z,7.17
2023-01-29T20:48:23.563Z,7.97
2023-01-29T20:51:26.804Z,10.98
2023-01-29T20:54:30.176Z,7.45
2023-01-29T20:57:37.403Z,6.30
2023-01-29T21:00:40.432Z,6.20
2023-01-29T21:03:43.747Z,5.47
2023-01-29T21:06:46.674Z,6.25
2023-01-29T21:09:49.969Z,5.20
2023-01-29T21:12:54.716Z,6.57
2023-01-29T21:15:57.819Z,4.90
2023-01-29T21:19:01.413Z,6.18
2023-01-29T21:22:04.800Z,6.10
2023-01-29T21:25:08.281Z,5.70
2023-01-29T21:28:11.768Z,5.75
2023-01-29T21:31:16.390Z,6.00
2023-01-29T21:34:19.486Z,5.97
2023-01-29T21:37:22.261Z,6.00
2023-01-29T21:40:25.497Z,5.95
2023-01-29T21:43:28.625Z,7.93
2023-01-29T21:46:31.598Z,6.23
2023-01-29T21:49:34.675Z,6.32
2023-01-29T21:52:37.983Z,7.10
2023-01-29T21:55:40.847Z,6.90
2023-01-29T21:58:43.737Z,6.88
2023-01-29T22:01:46.547Z,6.20
2023-01-29T22:04:50.468Z,6.50
2023-01-29T22:07:53.177Z,7.82
2023-01-29T22:10:56.013Z,6.43
2023-01-29T22:13:58.864Z,6.80
2023-01-29T22:17:01.764Z,6.23
2023-01-29T22:20:08.663Z,5.68
2023-01-29T22:23:12.701Z,5.57
2023-01-29T22:26:16.138Z,6.15
2023-01-29T22:29:19.722Z,6.70
2023-01-29T22:32:22.467Z,5.57
2023-01-29T22:35:25.214Z,6.18
2023-01-29T22:38:28.351Z,6.63
2023-01-29T22:41:31.154Z,5.57
2023-01-29T22:44:34.247Z,5.88
2023-01-29T22:47:37.565Z,6.20
2023-01-29T22:50:41.072Z,6.05
2023-01-29T22:53:50.725Z,6.80
2023-01-29T22:56:53.415Z,6.88
2023-01-29T22:59:56.209Z,6.00
2023-01-29T23:02:59.189Z,7.07
2023-01-29T23:06:03.159Z,6.25
2023-01-29T23:09:05.949Z,6.97
2023-01-29T23:12:08.672Z,6.18
2023-01-29T23:15:11.577Z,7.35
2023-01-29T23:18:14.364Z,5.23
2023-01-29T23:21:17.824Z,7.05
2023-01-29T23:24:20.653Z,6.07
2023-01-29T23:27:23.451Z,6.07
2023-01-29T23:30:26.187Z,6.13
2023-01-29T23:33:29.027Z,5.63
2023-01-29T23:36:31.774Z,6.43
2023-01-29T23:39:34.586Z,6.28
2023-01-29T23:42:37.284Z,6.32
2023-01-29T23:45:41.671Z,6.90
2023-01-29T23:48:44.592Z,6.53
2023-01-29T23:51:49.188Z,6.55
2023-01-29T23:54:51.917Z,4.82
2023-01-29T23:57:54.706Z,5.72
